Time;durP1;ratioP1;P1;durP2;ratioP2;P2;SDS_P1;SDS_P2;PMS_P1;PMS_P2;Temp;Humidity;BMP_temperature;BMP_pressure;BME280_temperature;BME280_humidity;BME280_pressure;Samples;Min_cycle;Max_cycle;Signal;HPM_P1;HPM_P2
2022/12/21 00:01:34;;;;;;;30.07;15.27;;;7.50;99.90;;;;;;5029523;28;20198;-62
2022/12/21 00:04:03;;;;;;;29.23;14.57;;;7.50;99.90;;;;;;5029131;28;20577;-62
2022/12/21 00:06:32;;;;;;;26.00;12.60;;;7.50;99.90;;;;;;5029073;28;20194;-62
2022/12/21 00:09:02;;;;;;;27.30;13.93;;;7.50;99.90;;;;;;5028691;28;20599;-62
2022/12/21 00:11:30;;;;;;;31.20;14.57;;;7.50;99.90;;;;;;5028154;28;20232;-61
2022/12/21 00:13:59;;;;;;;28.63;12.97;;;7.50;99.90;;;;;;5029283;28;20195;-62
2022/12/21 00:16:28;;;;;;;27.27;13.27;;;7.50;99.90;;;;;;5012566;28;20218;-62
2022/12/21 00:18:58;;;;;;;36.03;16.10;;;7.50;99.90;;;;;;5012084;28;20206;-61
2022/12/21 00:21:27;;;;;;;32.70;15.00;;;7.50;99.90;;;;;;5027098;28;20273;-62
2022/12/21 00:23:58;;;;;;;35.23;16.27;;;7.50;99.90;;;;;;5028768;28;20268;-62
2022/12/21 00:26:26;;;;;;;34.23;15.57;;;7.50;99.90;;;;;;5026865;28;20628;-62
2022/12/21 00:28:55;;;;;;;34.07;15.53;;;7.50;99.90;;;;;;5026711;28;20201;-62
2022/12/21 00:31:24;;;;;;;27.33;12.93;;;7.50;99.90;;;;;;5028799;28;20206;-63
2022/12/21 00:33:54;;;;;;;24.77;12.70;;;7.50;99.90;;;;;;5008325;28;20207;-63
2022/12/21 00:36:25;;;;;;;27.00;13.30;;;7.50;99.90;;;;;;5028543;28;20730;-62
2022/12/21 00:38:52;;;;;;;28.07;12.93;;;7.50;99.90;;;;;;5027760;28;20190;-62
2022/12/21 00:41:22;;;;;;;25.37;12.13;;;7.50;99.90;;;;;;5027267;28;20268;-62
2022/12/21 00:43:52;;;;;;;36.17;16.87;;;7.50;99.90;;;;;;5028162;28;20191;-61
2022/12/21 00:46:22;;;;;;;33.37;15.60;;;7.50;99.90;;;;;;5027889;28;20186;-62
2022/12/21 00:48:50;;;;;;;35.13;16.67;;;7.50;99.90;;;;;;5026118;28;20607;-61
2022/12/21 00:51:22;;;;;;;27.97;13.60;;;7.50;99.90;;;;;;5027473;28;20211;-62
2022/12/21 00:53:54;;;;;;;30.50;14.87;;;7.60;99.90;;;;;;5026409;28;20625;-63
2022/12/21 00:56:21;;;;;;;26.27;12.60;;;7.50;99.90;;;;;;5003939;28;20218;-62
2022/12/21 00:58:49;;;;;;;21.67;11.27;;;7.60;99.90;;;;;;5026701;28;20204;-61
2022/12/21 01:01:17;;;;;;;33.57;15.93;;;7.60;99.90;;;;;;5026295;28;20194;-62
2022/12/21 01:03:45;;;;;;;29.13;13.53;;;7.60;99.90;;;;;;5009354;28;20317;-63
2022/12/21 01:06:14;;;;;;;27.47;13.23;;;7.60;99.90;;;;;;5025763;28;20194;-62
2022/12/21 01:08:42;;;;;;;25.57;12.73;;;7.60;99.90;;;;;;5026280;28;20866;-62
2022/12/21 01:11:12;;;;;;;29.63;13.83;;;7.60;99.90;;;;;;5024019;28;20198;-62
2022/12/21 01:13:40;;;;;;;43.70;19.77;;;7.60;99.90;;;;;;5028561;28;20209;-62
2022/12/21 01:16:13;;;;;;;42.17;20.37;;;7.60;99.90;;;;;;5025431;28;20231;-63
2022/12/21 01:18:40;;;;;;;37.17;18.43;;;7.60;99.90;;;;;;5027434;28;20190;-62
2022/12/21 01:21:07;;;;;;;32.83;16.13;;;7.60;99.90;;;;;;5027282;28;20215;-62
2022/12/21 01:23:34;;;;;;;36.80;19.03;;;7.60;99.90;;;;;;5028250;28;20196;-63
2022/12/21 01:26:01;;;;;;;34.53;17.73;;;7.60;99.90;;;;;;5026269;28;20271;-62
2022/12/21 01:28:32;;;;;;;31.60;15.57;;;7.60;99.90;;;;;;5028132;28;20203;-62
2022/12/21 01:31:01;;;;;;;36.80;17.13;;;7.60;99.90;;;;;;5027394;28;20190;-62
2022/12/21 01:33:29;;;;;;;27.93;13.43;;;7.60;99.90;;;;;;5026568;28;20274;-63
2022/12/21 01:35:57;;;;;;;23.90;12.00;;;7.50;99.90;;;;;;5008673;28;20219;-62
2022/12/21 01:38:26;;;;;;;25.37;12.20;;;7.50;99.90;;;;;;5011897;28;20207;-62
2022/12/21 01:40:53;;;;;;;26.30;12.50;;;7.60;99.90;;;;;;5024642;28;20191;-63
2022/12/21 01:43:43;;;;;;;26.77;13.27;;;7.60;99.90;;;;;;5009566;28;20216;-62
2022/12/21 01:46:14;;;;;;;31.00;14.77;;;7.60;99.90;;;;;;5008042;28;20198;-61
2022/12/21 01:48:45;;;;;;;30.07;15.00;;;7.60;99.90;;;;;;5024437;28;20198;-62
2022/12/21 01:51:15;;;;;;;29.47;14.73;;;7.50;99.90;;;;;;5027160;28;20229;-61
2022/12/21 01:53:48;;;;;;;35.10;16.40;;;7.50;99.90;;;;;;5025157;28;20285;-62
2022/12/21 01:56:18;;;;;;;36.47;17.27;;;7.50;99.90;;;;;;5004373;28;20234;-64
2022/12/21 01:58:47;;;;;;;35.43;17.07;;;7.40;99.90;;;;;;5008717;28;20264;-62
2022/12/21 02:01:14;;;;;;;33.80;16.07;;;7.40;99.90;;;;;;5006591;28;20199;-61
2022/12/21 02:03:46;;;;;;;31.10;14.37;;;7.40;99.90;;;;;;4999985;28;20236;-62
2022/12/21 02:06:19;;;;;;;32.80;15.80;;;7.40;99.90;;;;;;4986653;28;20270;-62
2022/12/21 02:08:47;;;;;;;26.97;13.93;;;7.40;99.90;;;;;;4998905;28;20199;-62
2022/12/21 02:11:15;;;;;;;30.73;14.13;;;7.30;99.90;;;;;;4986755;28;20715;-62
2022/12/21 02:13:43;;;;;;;29.17;14.70;;;7.30;99.90;;;;;;4994625;28;20195;-62
2022/12/21 02:16:35;;;;;;;26.23;13.27;;;7.30;99.90;;;;;;4990419;28;20236;-61
2022/12/21 02:19:40;;;;;;;23.83;12.20;;;7.30;99.90;;;;;;4990462;28;20206;-62
2022/12/21 02:22:14;;;;;;;28.23;13.47;;;7.40;99.90;;;;;;5005300;28;20219;-62
2022/12/21 02:25:09;;;;;;;33.13;15.03;;;7.40;99.90;;;;;;4986989;28;20196;-62
2022/12/21 02:28:03;;;;;;;27.67;13.80;;;7.40;99.90;;;;;;4990744;28;20200;-62
2022/12/21 02:30:55;;;;;;;27.83;14.30;;;7.40;99.90;;;;;;4992046;28;20196;-61
2022/12/21 02:33:32;;;;;;;40.53;18.00;;;7.40;99.90;;;;;;4989904;28;20240;-61
2022/12/21 02:36:08;;;;;;;32.23;15.13;;;7.40;99.90;;;;;;4987541;28;20210;-62
2022/12/21 02:38:47;;;;;;;25.70;12.57;;;7.40;99.90;;;;;;4985213;28;20198;-62
2022/12/21 02:41:29;;;;;;;35.37;16.17;;;7.30;99.90;;;;;;4988749;28;20223;-62
2022/12/21 02:44:15;;;;;;;32.80;14.47;;;7.30;99.90;;;;;;4991175;28;20188;-62
2022/12/21 02:46:57;;;;;;;30.30;15.07;;;7.30;99.90;;;;;;4990597;28;20265;-61
2022/12/21 02:49:29;;;;;;;36.20;15.90;;;7.30;99.90;;;;;;4989011;28;20196;-62
2022/12/21 02:52:02;;;;;;;33.50;16.53;;;7.30;99.90;;;;;;4988805;28;20195;-63
2022/12/21 02:54:29;;;;;;;32.33;14.63;;;7.30;99.90;;;;;;4986934;28;20214;-63
2022/12/21 02:56:59;;;;;;;28.90;13.90;;;7.30;99.90;;;;;;4992259;28;20207;-62
2022/12/21 02:59:32;;;;;;;29.47;14.10;;;7.20;99.90;;;;;;4990049;28;20231;-62
2022/12/21 03:02:31;;;;;;;25.63;12.60;;;7.20;99.90;;;;;;4993327;28;20223;-62
2022/12/21 03:05:12;;;;;;;28.27;13.67;;;7.20;99.90;;;;;;5011770;28;20293;-62
2022/12/21 03:07:54;;;;;;;31.60;13.80;;;7.20;99.90;;;;;;5012270;28;20605;-62
2022/12/21 03:10:31;;;;;;;27.40;13.27;;;7.20;99.90;;;;;;5005893;28;20733;-61
2022/12/21 03:13:11;;;;;;;30.40;14.23;;;7.20;99.90;;;;;;5012965;28;20596;-62
2022/12/21 03:15:46;;;;;;;31.80;14.97;;;7.20;99.90;;;;;;5010166;28;20198;-63
2022/12/21 03:18:25;;;;;;;33.40;16.37;;;7.20;99.90;;;;;;5012415;28;20257;-61
2022/12/21 03:21:00;;;;;;;32.57;15.00;;;7.20;99.90;;;;;;5011684;28;20203;-62
2022/12/21 03:23:32;;;;;;;33.13;14.97;;;7.20;99.90;;;;;;5030726;28;20209;-62
2022/12/21 03:26:06;;;;;;;26.43;13.40;;;7.20;99.90;;;;;;5009522;28;20195;-62
2022/12/21 03:28:36;;;;;;;22.23;11.70;;;7.20;99.90;;;;;;5011636;28;20205;-62
2022/12/21 03:31:07;;;;;;;22.73;11.27;;;7.20;99.90;;;;;;5029984;28;20276;-63
2022/12/21 03:33:41;;;;;;;29.60;14.37;;;7.20;99.90;;;;;;5026568;28;20285;-62
2022/12/21 03:36:14;;;;;;;35.53;14.97;;;7.20;99.90;;;;;;5009250;28;20217;-62
2022/12/21 03:38:45;;;;;;;24.73;12.37;;;7.20;99.90;;;;;;5029052;28;20197;-62
2022/12/21 03:41:19;;;;;;;25.60;12.77;;;7.20;99.90;;;;;;5027416;28;20186;-62
2022/12/21 03:43:49;;;;;;;25.90;13.60;;;7.20;99.90;;;;;;5029377;28;20230;-62
2022/12/21 03:46:20;;;;;;;26.00;12.87;;;7.20;99.90;;;;;;5027852;28;20744;-62
2022/12/21 03:48:54;;;;;;;31.73;15.47;;;7.30;99.90;;;;;;5027853;28;20191;-62
2022/12/21 03:51:27;;;;;;;30.50;15.27;;;7.30;99.90;;;;;;5027570;28;20249;-62
2022/12/21 03:54:02;;;;;;;32.10;15.50;;;7.30;99.90;;;;;;5029643;28;20658;-62
2022/12/21 03:56:33;;;;;;;31.43;15.90;;;7.20;99.90;;;;;;5027685;28;20280;-62
2022/12/21 03:59:01;;;;;;;32.10;15.73;;;7.20;99.90;;;;;;5026549;28;20198;-62
2022/12/21 04:01:38;;;;;;;29.83;15.20;;;7.30;99.90;;;;;;5026801;28;20206;-62
2022/12/21 04:04:26;;;;;;;27.80;13.83;;;7.20;99.90;;;;;;5027435;28;20234;-62
2022/12/21 04:06:57;;;;;;;25.90;13.10;;;7.30;99.90;;;;;;5029995;28;20244;-63
2022/12/21 04:09:24;;;;;;;32.33;15.27;;;7.30;99.90;;;;;;5025837;28;20222;-62
2022/12/21 04:14:36;;;;;;;35.80;17.30;;;7.30;99.90;;;;;;5028182;28;20191;-62
2022/12/21 04:17:03;;;;;;;30.97;16.10;;;7.30;99.90;;;;;;5009713;28;20218;-62
2022/12/21 04:28:07;;;;;;;31.43;15.40;;;7.30;99.90;;;;;;5029626;28;20191;-62
2022/12/21 04:30:34;;;;;;;33.47;15.17;;;7.30;99.90;;;;;;5027075;28;20197;-62
2022/12/21 04:33:02;;;;;;;39.53;17.10;;;7.20;99.90;;;;;;5027488;28;20389;-61
2022/12/21 04:35:31;;;;;;;35.40;17.20;;;7.30;99.90;;;;;;5028226;28;20683;-62
2022/12/21 04:37:57;;;;;;;33.03;15.37;;;7.30;99.90;;;;;;5028691;28;20289;-62
2022/12/21 04:40:24;;;;;;;25.73;13.20;;;7.30;99.90;;;;;;5025412;28;20214;-61
2022/12/21 04:42:51;;;;;;;31.73;15.20;;;7.30;99.90;;;;;;5028338;28;20252;-61
2022/12/21 04:45:19;;;;;;;37.47;17.77;;;7.40;99.90;;;;;;5028368;28;20206;-62
2022/12/21 04:47:46;;;;;;;32.53;16.00;;;7.40;99.90;;;;;;5029079;28;20190;-62
2022/12/21 04:50:13;;;;;;;39.87;18.20;;;7.40;99.90;;;;;;5026448;28;20213;-62
2022/12/21 04:52:42;;;;;;;34.60;15.87;;;7.40;99.90;;;;;;5024373;28;20665;-61
2022/12/21 04:55:09;;;;;;;35.50;16.90;;;7.40;99.90;;;;;;5024437;28;20663;-62
2022/12/21 04:57:36;;;;;;;38.83;18.20;;;7.40;99.90;;;;;;5028761;28;20229;-62
2022/12/21 05:00:05;;;;;;;36.67;17.30;;;7.40;99.90;;;;;;5026940;28;20191;-61
2022/12/21 05:02:32;;;;;;;35.03;16.63;;;7.40;99.90;;;;;;5028271;28;20238;-63
2022/12/21 05:04:59;;;;;;;38.90;17.73;;;7.40;99.90;;;;;;5028131;28;20198;-62
2022/12/21 05:07:26;;;;;;;38.37;18.13;;;7.30;99.90;;;;;;5027872;28;20203;-62
2022/12/21 05:09:54;;;;;;;33.87;16.17;;;7.30;99.90;;;;;;5021572;28;20198;-61
2022/12/21 05:12:22;;;;;;;42.57;18.10;;;7.40;99.90;;;;;;5028051;28;20194;-61
2022/12/21 05:14:49;;;;;;;38.00;17.20;;;7.30;99.90;;;;;;5026712;28;20199;-61
2022/12/21 05:17:16;;;;;;;41.60;18.77;;;7.30;99.90;;;;;;5027147;28;20712;-62
2022/12/21 05:19:46;;;;;;;45.40;19.60;;;7.30;99.90;;;;;;5026090;28;20191;-62
2022/12/21 05:22:16;;;;;;;39.87;18.43;;;7.40;99.90;;;;;;5025506;28;20190;-61
2022/12/21 05:24:43;;;;;;;38.87;17.67;;;7.30;99.90;;;;;;5023508;28;20217;-62
2022/12/21 05:27:12;;;;;;;38.37;18.57;;;7.30;99.90;;;;;;5027293;28;20190;-62
2022/12/21 05:29:39;;;;;;;41.50;19.57;;;7.40;99.90;;;;;;5026808;28;20198;-62
2022/12/21 05:32:06;;;;;;;41.60;19.87;;;7.40;99.90;;;;;;5025300;28;20206;-62
2022/12/21 05:34:36;;;;;;;39.40;19.00;;;7.40;99.90;;;;;;5006925;28;20386;-62
2022/12/21 05:37:03;;;;;;;38.20;18.27;;;7.30;99.90;;;;;;5025921;28;20211;-61
2022/12/21 05:39:30;;;;;;;40.67;19.30;;;7.40;99.90;;;;;;5005689;28;20965;-61
2022/12/21 05:41:57;;;;;;;41.80;18.83;;;7.40;99.90;;;;;;5026709;28;20221;-61
2022/12/21 05:44:27;;;;;;;40.57;18.80;;;7.40;99.90;;;;;;5007877;28;20209;-61
2022/12/21 05:46:54;;;;;;;40.10;18.27;;;7.30;99.90;;;;;;5026591;28;20198;-62
2022/12/21 05:49:22;;;;;;;32.23;15.40;;;7.40;99.90;;;;;;5006906;28;20207;-62
2022/12/21 05:51:50;;;;;;;29.03;14.57;;;7.40;99.90;;;;;;5026380;28;20290;-62
2022/12/21 05:54:20;;;;;;;36.63;16.40;;;7.40;99.90;;;;;;5023819;28;20509;-62
2022/12/21 05:56:47;;;;;;;29.57;14.37;;;7.40;99.90;;;;;;5027372;28;20241;-62
2022/12/21 05:59:15;;;;;;;31.67;15.23;;;7.50;99.90;;;;;;5005910;28;20231;-62
2022/12/21 06:01:44;;;;;;;32.00;14.73;;;7.50;99.90;;;;;;5026337;28;20202;-60
2022/12/21 06:04:12;;;;;;;25.57;12.20;;;7.50;99.90;;;;;;5025372;28;20247;-61
2022/12/21 06:06:40;;;;;;;30.20;13.87;;;7.50;99.90;;;;;;5028317;28;20651;-62
2022/12/21 06:09:07;;;;;;;31.40;14.57;;;7.50;99.90;;;;;;5020982;28;20199;-62
2022/12/21 06:11:34;;;;;;;33.67;14.30;;;7.60;99.90;;;;;;5026060;28;20198;-61
2022/12/21 06:14:01;;;;;;;39.13;17.87;;;7.60;99.90;;;;;;5025085;28;20718;-62
2022/12/21 06:16:29;;;;;;;43.67;18.20;;;7.60;99.90;;;;;;5008353;28;20206;-63
2022/12/21 06:18:59;;;;;;;36.43;17.50;;;7.60;99.90;;;;;;5008765;28;20211;-61
2022/12/21 06:21:27;;;;;;;39.73;17.77;;;7.60;99.90;;;;;;5008966;28;20303;-61
2022/12/21 06:23:54;;;;;;;37.13;17.27;;;7.60;99.90;;;;;;5009056;28;20207;-61
2022/12/21 06:26:21;;;;;;;38.30;17.53;;;7.60;99.90;;;;;;5025884;28;20206;-62
2022/12/21 06:28:49;;;;;;;34.13;16.27;;;7.60;99.90;;;;;;5025346;28;20195;-62
2022/12/21 06:31:17;;;;;;;33.83;15.90;;;7.60;99.90;;;;;;5026703;28;20701;-61
2022/12/21 06:33:44;;;;;;;28.67;13.27;;;7.60;99.90;;;;;;5025645;28;20206;-61
2022/12/21 06:36:13;;;;;;;31.40;14.30;;;7.60;99.90;;;;;;5027756;28;20608;-63
2022/12/21 06:38:41;;;;;;;27.77;12.73;;;7.60;99.90;;;;;;5027366;28;20203;-62
2022/12/21 06:41:10;;;;;;;23.43;11.37;;;7.60;99.90;;;;;;5024777;28;20577;-62
2022/12/21 06:43:38;;;;;;;35.43;15.67;;;7.60;99.90;;;;;;5026767;28;20226;-62
2022/12/21 06:46:07;;;;;;;29.97;14.43;;;7.60;99.90;;;;;;5025719;28;20568;-62
2022/12/21 06:48:36;;;;;;;31.13;14.37;;;7.60;99.90;;;;;;5025519;28;20482;-62
2022/12/21 06:51:06;;;;;;;22.50;11.10;;;7.60;99.90;;;;;;5025783;28;20283;-62
2022/12/21 06:53:36;;;;;;;41.33;18.00;;;7.60;99.90;;;;;;5024954;28;20199;-62
2022/12/21 06:56:08;;;;;;;36.53;16.30;;;7.60;99.90;;;;;;5027178;28;20192;-62
2022/12/21 06:58:36;;;;;;;32.03;14.57;;;7.60;99.90;;;;;;5028125;28;20273;-62
2022/12/21 07:01:08;;;;;;;29.03;13.60;;;7.60;99.90;;;;;;5026998;28;20196;-62
2022/12/21 07:03:35;;;;;;;30.60;14.53;;;7.60;99.90;;;;;;5028071;28;20230;-62
2022/12/21 07:06:03;;;;;;;27.37;13.50;;;7.60;99.90;;;;;;5028557;28;20205;-62
2022/12/21 07:08:30;;;;;;;34.30;15.37;;;7.60;99.90;;;;;;5011943;28;20209;-62
2022/12/21 07:11:00;;;;;;;38.27;16.07;;;7.70;99.90;;;;;;5023504;28;20380;-62
2022/12/21 07:13:28;;;;;;;34.67;15.40;;;7.70;99.90;;;;;;5026439;28;20190;-62
2022/12/21 07:15:57;;;;;;;33.23;14.03;;;7.70;99.90;;;;;;5026480;28;20205;-62
2022/12/21 07:18:25;;;;;;;33.73;16.43;;;7.70;99.90;;;;;;5028799;28;20214;-62
2022/12/21 07:20:58;;;;;;;34.23;15.27;;;7.70;99.90;;;;;;5025512;28;20698;-61
2022/12/21 07:23:25;;;;;;;36.03;15.40;;;7.70;99.90;;;;;;5026482;28;20314;-62
2022/12/21 07:25:52;;;;;;;33.73;15.37;;;7.70;99.90;;;;;;5022446;28;20195;-62
2022/12/21 07:28:21;;;;;;;33.70;14.30;;;7.70;99.90;;;;;;5027119;28;20197;-62
2022/12/21 07:30:49;;;;;;;25.83;13.10;;;7.70;99.90;;;;;;5020327;28;20659;-62
2022/12/21 07:33:16;;;;;;;38.00;16.97;;;7.70;99.90;;;;;;5021117;28;20198;-63
2022/12/21 07:35:43;;;;;;;41.73;18.43;;;7.70;99.90;;;;;;5026440;28;20205;-62
2022/12/21 07:38:10;;;;;;;42.53;18.73;;;7.70;99.90;;;;;;5027515;28;20211;-62
2022/12/21 07:40:38;;;;;;;45.23;20.10;;;7.70;99.90;;;;;;5021933;28;20192;-62
2022/12/21 07:43:08;;;;;;;36.73;17.57;;;7.70;99.90;;;;;;5026122;28;20195;-62
2022/12/21 07:45:45;;;;;;;42.40;18.50;;;7.70;99.90;;;;;;5007913;28;20262;-61
2022/12/21 07:48:15;;;;;;;40.07;18.17;;;7.70;99.90;;;;;;5012773;28;20279;-61
2022/12/21 07:50:43;;;;;;;39.33;18.27;;;7.70;99.90;;;;;;5026024;28;20293;-61
2022/12/21 07:53:10;;;;;;;43.73;19.10;;;7.70;99.90;;;;;;5008275;28;20281;-62
2022/12/21 07:55:37;;;;;;;40.93;18.70;;;7.70;99.90;;;;;;5023895;28;20195;-61
2022/12/21 07:58:04;;;;;;;37.00;17.60;;;7.60;99.90;;;;;;5028085;28;20214;-61
2022/12/21 08:00:32;;;;;;;32.93;16.00;;;7.60;99.90;;;;;;5024894;28;20205;-61
2022/12/21 08:03:00;;;;;;;39.10;17.40;;;7.60;99.90;;;;;;5026396;28;20226;-62
2022/12/21 08:05:28;;;;;;;41.87;17.73;;;7.60;99.90;;;;;;5025559;28;20516;-62
2022/12/21 08:07:55;;;;;;;37.17;17.67;;;7.60;99.90;;;;;;5026801;28;20190;-62
2022/12/21 08:10:22;;;;;;;34.37;16.23;;;7.60;99.90;;;;;;5023885;28;20210;-61
2022/12/21 08:12:49;;;;;;;29.57;14.27;;;7.70;99.90;;;;;;5026454;28;20257;-61
2022/12/21 08:15:16;;;;;;;36.17;17.10;;;7.60;99.90;;;;;;5024866;28;20201;-61
2022/12/21 08:17:43;;;;;;;36.37;17.23;;;7.60;99.90;;;;;;5024441;28;20298;-62
2022/12/21 08:20:13;;;;;;;33.47;16.10;;;7.60;99.90;;;;;;5008504;28;20276;-61
2022/12/21 08:22:41;;;;;;;30.20;15.27;;;7.60;99.90;;;;;;5024237;28;20199;-61
2022/12/21 08:25:09;;;;;;;26.80;13.87;;;7.60;99.90;;;;;;5024807;28;20565;-62
2022/12/21 08:27:37;;;;;;;34.97;16.00;;;7.60;99.90;;;;;;5025890;28;20187;-61
2022/12/21 08:30:05;;;;;;;32.77;13.83;;;7.60;99.90;;;;;;5022916;28;20245;-61
2022/12/21 08:32:33;;;;;;;26.10;13.33;;;7.60;99.90;;;;;;5005661;28;20221;-61
2022/12/21 08:35:00;;;;;;;24.70;12.90;;;7.60;99.90;;;;;;5022309;28;20191;-62
2022/12/21 08:37:28;;;;;;;26.00;13.43;;;7.60;99.90;;;;;;5024157;28;20231;-60
2022/12/21 08:39:55;;;;;;;31.77;15.73;;;7.60;99.90;;;;;;5024018;28;20217;-61
2022/12/21 08:42:22;;;;;;;32.27;15.77;;;7.60;99.90;;;;;;5024274;28;20207;-62
2022/12/21 08:44:49;;;;;;;30.50;14.67;;;7.60;99.90;;;;;;5003992;28;20195;-61
2022/12/21 08:47:17;;;;;;;26.67;13.80;;;7.60;99.90;;;;;;5007199;28;20378;-62
2022/12/21 08:49:44;;;;;;;29.73;13.87;;;7.70;99.90;;;;;;5023793;28;20199;-61
2022/12/21 08:52:11;;;;;;;28.80;13.20;;;7.70;99.90;;;;;;5025114;28;21047;-61
2022/12/21 08:54:40;;;;;;;26.40;12.20;;;7.70;99.90;;;;;;5023245;28;20205;-62
2022/12/21 08:57:07;;;;;;;24.43;13.20;;;7.70;99.90;;;;;;5024921;28;20281;-61
2022/12/21 08:59:34;;;;;;;21.60;11.17;;;7.70;99.90;;;;;;5023701;28;20210;-62
2022/12/21 09:02:01;;;;;;;22.23;11.93;;;7.70;99.90;;;;;;5021330;28;20208;-63
2022/12/21 09:04:29;;;;;;;17.07;9.87;;;7.80;99.90;;;;;;5025915;28;20839;-62
2022/12/21 09:06:56;;;;;;;16.37;9.30;;;7.80;99.90;;;;;;5024746;28;20663;-61
2022/12/21 09:09:23;;;;;;;16.87;9.20;;;7.80;99.90;;;;;;5023671;28;20195;-62
2022/12/21 09:11:52;;;;;;;17.07;9.63;;;7.80;99.90;;;;;;5026672;28;20572;-62
2022/12/21 09:14:19;;;;;;;17.27;9.50;;;7.80;99.90;;;;;;5025184;28;20198;-61
2022/12/21 09:16:46;;;;;;;13.53;8.13;;;7.80;99.90;;;;;;5024795;28;20192;-60
2022/12/21 09:19:13;;;;;;;15.33;8.23;;;7.80;99.90;;;;;;5023997;28;20207;-61
2022/12/21 09:21:40;;;;;;;22.60;11.03;;;7.80;99.90;;;;;;5025039;28;20201;-62
2022/12/21 09:24:08;;;;;;;21.47;11.23;;;7.80;99.90;;;;;;5024621;28;20224;-62
2022/12/21 09:26:36;;;;;;;22.03;11.90;;;7.80;99.90;;;;;;5023963;28;20547;-62
2022/12/21 09:29:05;;;;;;;27.97;13.80;;;7.90;99.90;;;;;;5025340;28;20560;-61
2022/12/21 09:31:34;;;;;;;23.83;12.07;;;7.80;99.90;;;;;;5023297;28;20292;-62
2022/12/21 09:34:02;;;;;;;22.20;11.13;;;7.80;99.90;;;;;;5003734;28;20294;-62
2022/12/21 09:36:29;;;;;;;21.20;11.20;;;7.80;99.90;;;;;;5022273;28;20733;-62
2022/12/21 09:38:56;;;;;;;27.13;14.27;;;7.80;99.90;;;;;;5024757;28;20707;-62
2022/12/21 09:41:39;;;;;;;28.47;14.63;;;7.80;99.90;;;;;;5024046;28;20201;-61
2022/12/21 09:44:26;;;;;;;30.53;14.73;;;7.80;99.90;;;;;;5035904;28;20269;-63
2022/12/21 09:46:58;;;;;;;20.80;11.90;;;7.70;99.90;;;;;;5006530;28;20566;-61
2022/12/21 09:49:32;;;;;;;20.43;10.97;;;7.80;99.90;;;;;;5024481;28;20224;-62
2022/12/21 09:52:05;;;;;;;18.93;9.97;;;7.80;99.90;;;;;;5026694;28;20257;-61
2022/12/21 09:54:37;;;;;;;17.20;9.60;;;7.80;99.90;;;;;;5018652;28;20202;-61
2022/12/21 09:57:07;;;;;;;16.47;9.60;;;7.80;99.90;;;;;;5020944;28;20200;-61
2022/12/21 09:59:36;;;;;;;23.63;12.10;;;7.80;99.90;;;;;;5024001;28;20210;-61
2022/12/21 10:02:12;;;;;;;21.57;11.70;;;7.80;99.90;;;;;;5026121;28;20182;-61
2022/12/21 10:04:56;;;;;;;17.90;10.10;;;7.90;99.90;;;;;;5024570;28;20190;-62
2022/12/21 10:07:49;;;;;;;18.40;10.47;;;7.80;99.90;;;;;;5025516;28;20209;-62
2022/12/21 10:10:23;;;;;;;21.20;11.20;;;7.80;99.90;;;;;;5023164;28;20195;-61
2022/12/21 10:13:00;;;;;;;19.10;10.60;;;7.80;99.90;;;;;;5007517;28;20590;-61
2022/12/21 10:15:35;;;;;;;25.57;11.63;;;7.80;99.90;;;;;;5024488;28;20204;-61
2022/12/21 10:18:12;;;;;;;19.00;10.60;;;7.90;99.90;;;;;;5025993;28;20242;-62
2022/12/21 10:20:51;;;;;;;15.70;9.30;;;7.80;99.90;;;;;;5005286;28;20223;-61
2022/12/21 10:23:23;;;;;;;15.80;9.40;;;7.80;99.90;;;;;;5022501;28;20191;-61
2022/12/21 10:25:55;;;;;;;17.33;8.77;;;7.80;99.90;;;;;;5004136;28;20207;-62
2022/12/21 10:28:48;;;;;;;23.53;11.27;;;7.80;99.90;;;;;;5026471;28;20644;-65
2022/12/21 10:31:24;;;;;;;20.43;10.17;;;7.90;99.90;;;;;;5028543;28;20428;-62
2022/12/21 10:33:53;;;;;;;19.07;9.77;;;7.90;99.90;;;;;;5010126;28;20195;-63
2022/12/21 10:36:22;;;;;;;21.60;9.70;;;7.90;99.90;;;;;;5011916;28;20660;-62
2022/12/21 10:38:50;;;;;;;17.43;9.90;;;7.90;99.90;;;;;;5026267;28;20265;-62
2022/12/21 10:41:20;;;;;;;19.93;10.47;;;8.00;99.90;;;;;;5012146;28;20205;-62
2022/12/21 10:43:48;;;;;;;15.57;8.77;;;8.00;99.90;;;;;;5031654;28;20199;-62
2022/12/21 10:46:19;;;;;;;16.83;8.73;;;8.00;99.90;;;;;;5029495;28;20553;-62
2022/12/21 10:48:47;;;;;;;14.87;7.90;;;8.10;99.90;;;;;;5030288;28;20199;-62
2022/12/21 10:51:22;;;;;;;16.87;9.70;;;8.10;99.90;;;;;;5030329;28;20193;-62
2022/12/21 10:54:01;;;;;;;18.50;9.27;;;8.10;99.90;;;;;;5029850;28;20322;-62
2022/12/21 10:56:30;;;;;;;15.60;9.73;;;8.20;99.90;;;;;;5028827;28;20289;-61
2022/12/21 10:59:04;;;;;;;12.80;8.00;;;8.20;99.90;;;;;;5028615;28;20574;-62
2022/12/21 11:01:33;;;;;;;19.00;10.40;;;8.20;99.90;;;;;;5030669;28;20194;-62
2022/12/21 11:04:10;;;;;;;18.93;10.10;;;8.20;99.90;;;;;;5029992;28;20280;-62
2022/12/21 11:06:38;;;;;;;14.93;8.90;;;8.20;99.90;;;;;;5031013;28;20278;-62
2022/12/21 11:09:36;;;;;;;14.50;8.50;;;8.20;99.90;;;;;;5025578;28;20195;-63
2022/12/21 11:12:19;;;;;;;9.90;6.33;;;8.20;99.90;;;;;;5028379;28;20215;-62
2022/12/21 11:14:47;;;;;;;15.17;8.90;;;8.30;99.90;;;;;;5023987;28;20184;-62
2022/12/21 11:17:21;;;;;;;14.33;8.10;;;8.30;99.90;;;;;;5029075;28;20206;-61
2022/12/21 11:19:52;;;;;;;11.33;7.20;;;8.30;99.90;;;;;;5025977;28;20644;-63
2022/12/21 11:22:27;;;;;;;13.23;7.93;;;8.30;99.90;;;;;;5026921;28;20194;-63
2022/12/21 11:24:56;;;;;;;13.67;8.00;;;8.30;99.90;;;;;;5023972;28;20273;-63
2022/12/21 11:27:26;;;;;;;12.33;7.13;;;8.30;99.90;;;;;;5030659;28;20192;-63
2022/12/21 11:29:55;;;;;;;12.57;7.33;;;8.30;99.90;;;;;;5026209;28;20228;-62
2022/12/21 11:32:25;;;;;;;8.90;6.37;;;8.30;99.90;;;;;;5027330;28;20194;-63
2022/12/21 11:34:54;;;;;;;13.77;7.47;;;8.30;99.90;;;;;;5024653;28;20190;-62
2022/12/21 11:37:26;;;;;;;10.70;6.90;;;8.30;99.90;;;;;;5026231;28;20200;-62
2022/12/21 11:39:56;;;;;;;12.13;7.30;;;8.30;99.90;;;;;;5025386;28;20639;-63
2022/12/21 11:42:27;;;;;;;11.77;7.40;;;8.40;99.90;;;;;;5030554;28;20195;-62
2022/12/21 11:45:23;;;;;;;11.33;7.33;;;8.40;99.90;;;;;;5027438;28;20194;-61
2022/12/21 11:48:04;;;;;;;13.17;7.87;;;8.40;99.90;;;;;;5027706;28;20285;-62
2022/12/21 11:50:46;;;;;;;17.60;9.43;;;8.40;99.90;;;;;;5027534;28;20192;-62
2022/12/21 11:53:40;;;;;;;18.47;9.03;;;8.40;99.90;;;;;;5027737;28;20187;-62
2022/12/21 11:56:20;;;;;;;11.60;6.97;;;7.50;99.90;;;;;;5019374;28;20227;-62
2022/12/21 11:59:12;;;;;;;10.67;6.30;;;8.40;99.90;;;;;;5026204;28;20946;-62
2022/12/21 12:01:53;;;;;;;16.17;8.80;;;8.40;99.90;;;;;;5028714;28;20739;-62
2022/12/21 12:04:36;;;;;;;19.67;9.27;;;8.40;99.90;;;;;;5028578;28;20197;-61
2022/12/21 12:07:23;;;;;;;14.67;8.27;;;8.40;99.90;;;;;;5027629;28;20200;-62
2022/12/21 12:10:23;;;;;;;14.00;6.97;;;8.40;99.90;;;;;;5026915;28;20182;-63
2022/12/21 12:13:00;;;;;;;19.47;10.90;;;8.40;99.90;;;;;;4976900;28;20548;-63
2022/12/21 12:15:39;;;;;;;14.97;8.73;;;8.40;99.90;;;;;;5027950;28;20206;-61
2022/12/21 12:18:26;;;;;;;17.77;9.73;;;8.40;99.90;;;;;;5028957;28;20192;-62
2022/12/21 12:21:16;;;;;;;16.00;9.33;;;8.40;99.90;;;;;;5008299;28;20185;-62
2022/12/21 12:23:50;;;;;;;15.47;8.80;;;8.40;99.90;;;;;;5028625;28;20549;-62
2022/12/21 12:26:25;;;;;;;16.03;9.10;;;8.40;99.90;;;;;;5027640;28;20574;-62
2022/12/21 12:29:10;;;;;;;11.70;6.83;;;8.40;99.90;;;;;;5028678;28;20223;-62
2022/12/21 12:31:56;;;;;;;11.07;6.63;;;8.50;99.90;;;;;;5027693;28;20198;-61
2022/12/21 12:34:48;;;;;;;10.57;6.37;;;8.50;99.90;;;;;;5025260;28;20273;-62
2022/12/21 12:37:28;;;;;;;17.00;8.63;;;8.50;99.90;;;;;;5026235;28;20589;-62
2022/12/21 12:40:04;;;;;;;14.73;8.47;;;8.50;99.90;;;;;;5024027;28;20711;-63
2022/12/21 12:42:35;;;;;;;13.90;7.60;;;8.50;99.90;;;;;;5026831;28;20203;-63
2022/12/21 12:45:15;;;;;;;11.77;6.80;;;8.50;99.90;;;;;;5028654;28;20508;-63
2022/12/21 12:47:50;;;;;;;10.37;6.40;;;8.50;99.90;;;;;;5011455;28;20276;-61
2022/12/21 12:50:28;;;;;;;11.27;6.67;;;8.50;99.90;;;;;;5024445;28;20565;-62
2022/12/21 12:53:13;;;;;;;13.30;8.03;;;8.60;99.90;;;;;;5005189;28;20565;-62
2022/12/21 12:55:48;;;;;;;14.33;7.83;;;8.60;99.90;;;;;;5014766;28;20226;-62
2022/12/21 12:58:24;;;;;;;12.63;7.43;;;8.60;99.90;;;;;;5030958;28;20205;-62
2022/12/21 13:00:58;;;;;;;13.80;8.10;;;8.50;99.90;;;;;;5025878;28;20190;-62
2022/12/21 13:03:41;;;;;;;14.00;7.80;;;8.60;99.90;;;;;;5023226;28;20238;-63
2022/12/21 13:06:20;;;;;;;16.37;9.27;;;8.60;99.90;;;;;;5026551;28;20268;-63
2022/12/21 13:09:00;;;;;;;15.47;8.40;;;8.60;99.90;;;;;;5007842;28;20203;-63
2022/12/21 13:11:38;;;;;;;12.73;7.93;;;8.60;99.90;;;;;;5023555;28;20208;-63
2022/12/21 13:14:12;;;;;;;17.80;9.63;;;8.60;99.90;;;;;;5026116;28;20192;-63